Time;durP1;ratioP1;P1;durP2;ratioP2;P2;SDS_P1;SDS_P2;PMS_P1;PMS_P2;Temp;Humidity;BMP_temperature;BMP_pressure;BME280_temperature;BME280_humidity;BME280_pressure;Samples;Min_cycle;Max_cycle;Signal;HPM_P1;HPM_P2
2023/01/12 00:01:53;;;;;;;6.63;3.92;;;4.50;96.20;;;;;;5034683;28;20055;-71
2023/01/12 00:04:19;;;;;;;9.68;3.38;;;4.40;96.80;;;;;;5036487;28;20043;-70
2023/01/12 00:06:45;;;;;;;9.23;3.58;;;4.40;95.60;;;;;;5033436;28;20059;-69
2023/01/12 00:09:10;;;;;;;6.68;3.08;;;4.50;95.90;;;;;;5035164;28;20029;-70
2023/01/12 00:11:37;;;;;;;8.05;3.08;;;4.70;95.10;;;;;;5038825;28;20063;-70
2023/01/12 00:14:04;;;;;;;8.70;3.72;;;4.60;95.30;;;;;;5037365;28;20060;-70
2023/01/12 00:16:42;;;;;;;6.60;3.10;;;4.70;95.20;;;;;;5040790;28;20092;-70
2023/01/12 00:19:12;;;;;;;6.40;3.38;;;4.70;95.60;;;;;;5042139;28;20433;-70
2023/01/12 00:22:07;;;;;;;6.22;3.58;;;4.60;95.60;;;;;;5039461;28;20080;-70
2023/01/12 00:24:36;;;;;;;8.13;3.03;;;4.70;95.30;;;;;;5037614;28;20068;-69
2023/01/12 00:27:14;;;;;;;6.13;3.30;;;4.70;95.50;;;;;;5041609;28;20080;-70
2023/01/12 00:29:40;;;;;;;7.28;3.22;;;4.60;95.50;;;;;;5040120;28;20025;-70
2023/01/12 00:32:07;;;;;;;5.70;3.28;;;4.60;95.20;;;;;;5039796;28;20372;-70
2023/01/12 00:34:32;;;;;;;8.25;3.95;;;4.60;95.50;;;;;;5040911;28;20524;-70
2023/01/12 00:37:03;;;;;;;8.10;3.70;;;4.50;96.40;;;;;;5042491;28;20056;-69
2023/01/12 00:39:29;;;;;;;6.03;3.28;;;4.50;96.40;;;;;;5040100;28;20086;-70
2023/01/12 00:47:23;;;;;;;5.13;2.28;;;4.50;95.70;;;;;;5042870;28;20045;-71
2023/01/12 00:49:49;;;;;;;5.53;2.45;;;4.60;95.30;;;;;;5037369;28;20029;-69
2023/01/12 00:52:17;;;;;;;7.03;2.47;;;4.60;95.40;;;;;;5035592;28;20033;-70
2023/01/12 00:54:43;;;;;;;5.90;2.72;;;4.50;96.90;;;;;;5040847;28;20061;-70
2023/01/12 00:57:12;;;;;;;10.73;3.60;;;4.30;98.10;;;;;;5038251;28;20441;-70
2023/01/12 00:59:37;;;;;;;5.45;3.13;;;4.00;98.00;;;;;;5037910;28;20068;-69
2023/01/12 01:02:04;;;;;;;8.15;3.90;;;3.80;97.80;;;;;;5039966;28;20057;-70
2023/01/12 01:04:30;;;;;;;6.03;3.13;;;3.70;98.10;;;;;;5040517;28;20033;-69
2023/01/12 01:06:56;;;;;;;10.13;3.78;;;3.60;97.80;;;;;;5039482;28;21067;-70
2023/01/12 01:09:22;;;;;;;7.10;3.28;;;3.80;97.00;;;;;;5040455;28;20028;-70
2023/01/12 01:11:48;;;;;;;10.48;4.78;;;3.80;97.00;;;;;;5041230;28;20490;-70
2023/01/12 01:14:14;;;;;;;7.20;3.10;;;4.00;96.50;;;;;;5038737;28;20468;-70
2023/01/12 01:16:40;;;;;;;6.03;2.92;;;4.00;96.40;;;;;;5039992;28;20545;-69
2023/01/12 01:19:05;;;;;;;5.93;2.53;;;3.80;96.80;;;;;;5039523;28;20037;-69
2023/01/12 01:21:32;;;;;;;11.18;3.17;;;3.70;97.10;;;;;;5036403;28;20494;-70
2023/01/12 01:23:59;;;;;;;7.00;2.58;;;3.90;96.70;;;;;;5036585;28;20109;-70
2023/01/12 01:26:25;;;;;;;4.53;2.15;;;3.90;96.50;;;;;;5037227;28;20052;-70
2023/01/12 01:28:51;;;;;;;5.25;2.50;;;3.80;96.60;;;;;;5034531;28;20068;-69
2023/01/12 01:31:21;;;;;;;6.82;2.50;;;3.50;97.10;;;;;;5039004;28;20044;-70
2023/01/12 01:33:48;;;;;;;6.40;2.50;;;3.30;97.50;;;;;;5037761;28;20483;-70
2023/01/12 01:36:15;;;;;;;7.13;2.38;;;3.50;97.10;;;;;;5041829;28;20033;-69
2023/01/12 01:38:43;;;;;;;8.13;3.03;;;3.60;96.90;;;;;;5038757;28;20044;-70
2023/01/12 01:41:25;;;;;;;6.75;2.33;;;3.60;97.20;;;;;;5032576;28;20171;-69
2023/01/12 01:44:03;;;;;;;7.95;2.88;;;3.60;97.20;;;;;;5036741;28;20495;-69
2023/01/12 01:46:37;;;;;;;7.45;2.72;;;3.70;97.20;;;;;;5036447;28;20064;-70
2023/01/12 01:49:43;;;;;;;5.25;2.00;;;3.50;97.50;;;;;;5040988;28;20033;-70
2023/01/12 01:52:08;;;;;;;;;;;3.60;97.30;;;;;;5032260;28;20491;-69
2023/01/12 01:55:02;;;;;;;3.78;2.00;;;3.40;97.70;;;;;;5036055;28;19911;-70
2023/01/12 01:57:34;;;;;;;5.22;2.97;;;3.50;97.90;;;;;;5037173;28;20081;-69
2023/01/12 02:00:02;;;;;;;5.60;2.67;;;3.90;96.90;;;;;;5042140;28;20090;-70
2023/01/12 02:02:28;;;;;;;7.57;2.60;;;3.80;97.40;;;;;;5042862;28;20068;-69
2023/01/12 02:04:55;;;;;;;7.90;2.53;;;3.60;97.70;;;;;;5043143;28;20498;-70
2023/01/12 02:07:21;;;;;;;4.25;2.03;;;3.40;98.00;;;;;;5042927;28;20075;-70
2023/01/12 02:09:47;;;;;;;8.45;3.72;;;3.20;98.50;;;;;;5041714;28;20028;-70
2023/01/12 02:18:19;;;;;;;5.65;2.25;;;3.20;98.90;;;;;;5037733;28;20012;-70
2023/01/12 02:21:22;;;;;;;4.57;1.92;;;3.30;98.80;;;;;;5042054;28;20025;-70
2023/01/12 02:24:22;;;;;;;3.75;1.98;;;3.40;98.90;;;;;;5046458;28;20454;-70
2023/01/12 02:27:17;;;;;;;4.93;2.00;;;3.50;98.80;;;;;;5042942;28;20021;-69
2023/01/12 02:29:58;;;;;;;4.70;2.08;;;3.50;98.80;;;;;;5046356;28;20162;-70
2023/01/12 02:32:47;;;;;;;9.30;2.67;;;3.50;98.60;;;;;;5046729;28;20033;-70
2023/01/12 02:35:34;;;;;;;5.57;1.90;;;3.50;98.90;;;;;;5043283;28;20036;-70
2023/01/12 02:38:11;;;;;;;5.20;2.35;;;3.50;99.10;;;;;;5040443;28;20072;-69
2023/01/12 02:40:59;;;;;;;4.75;2.40;;;3.80;98.40;;;;;;5042386;28;20041;-71
2023/01/12 02:43:29;;;;;;;7.35;2.97;;;3.70;98.80;;;;;;5042417;28;20069;-69
2023/01/12 02:46:19;;;;;;;5.28;2.58;;;3.70;98.50;;;;;;5042889;28;20534;-70
2023/01/12 02:48:56;;;;;;;6.65;2.47;;;3.90;98.10;;;;;;5045356;28;20028;-69
2023/01/12 02:51:36;;;;;;;4.45;2.22;;;3.90;98.30;;;;;;5044885;28;20028;-70
2023/01/12 02:54:06;;;;;;;4.68;2.40;;;3.70;98.70;;;;;;5046889;28;20079;-70
2023/01/12 02:56:37;;;;;;;4.35;2.30;;;3.70;98.30;;;;;;5038881;28;20029;-70
2023/01/12 02:59:12;;;;;;;6.70;2.10;;;3.60;98.50;;;;;;5039011;28;20120;-69
2023/01/12 03:01:40;;;;;;;4.97;2.15;;;3.50;98.70;;;;;;5044476;28;20494;-70
2023/01/12 03:04:09;;;;;;;3.92;2.25;;;3.70;98.70;;;;;;5036736;28;20037;-70
2023/01/12 03:06:44;;;;;;;3.10;1.60;;;3.70;98.90;;;;;;5041250;28;20051;-70
2023/01/12 03:09:11;;;;;;;4.18;2.03;;;3.70;98.30;;;;;;5043607;28;20120;-70
2023/01/12 03:11:39;;;;;;;8.73;1.95;;;3.50;98.80;;;;;;5047220;28;20029;-70
2023/01/12 03:14:07;;;;;;;4.45;1.90;;;3.60;98.60;;;;;;5041921;28;20067;-70
2023/01/12 03:16:34;;;;;;;3.50;1.95;;;3.70;98.50;;;;;;5040587;28;20028;-70
2023/01/12 03:19:21;;;;;;;5.63;2.20;;;3.60;98.70;;;;;;5040162;28;20459;-69
2023/01/12 03:21:54;;;;;;;6.32;2.20;;;3.70;98.80;;;;;;5043357;28;20107;-70
2023/01/12 03:24:28;;;;;;;4.88;2.42;;;3.80;98.60;;;;;;5034471;28;20040;-70
2023/01/12 03:27:26;;;;;;;4.75;1.73;;;3.70;98.90;;;;;;5037119;28;20038;-69
2023/01/12 03:29:59;;;;;;;5.47;2.03;;;3.70;99.00;;;;;;5039493;28;20042;-70
2023/01/12 03:32:26;;;;;;;4.90;1.98;;;3.60;99.30;;;;;;5041901;28;20044;-70
2023/01/12 03:34:52;;;;;;;5.50;1.95;;;3.40;99.20;;;;;;5035379;28;20603;-69
2023/01/12 03:37:39;;;;;;;4.90;1.80;;;3.50;99.00;;;;;;5040571;28;20037;-69
2023/01/12 03:40:22;;;;;;;4.30;2.00;;;3.20;99.90;;;;;;5041249;28;20034;-70
2023/01/12 03:43:06;;;;;;;4.18;1.85;;;3.20;99.90;;;;;;5038153;28;20029;-70
2023/01/12 03:46:21;;;;;;;5.18;1.55;;;3.10;99.90;;;;;;5033852;28;20087;-69
2023/01/12 03:49:08;;;;;;;3.78;2.00;;;3.30;99.60;;;;;;5005347;28;20080;-70
2023/01/12 03:51:40;;;;;;;6.10;2.70;;;3.30;99.80;;;;;;5038667;28;20099;-70
2023/01/12 03:54:09;;;;;;;6.63;2.67;;;3.40;99.50;;;;;;5042221;28;20116;-69
2023/01/12 03:56:37;;;;;;;5.72;2.63;;;3.40;99.50;;;;;;5038937;28;20033;-70
2023/01/12 03:59:04;;;;;;;4.43;1.80;;;3.30;99.80;;;;;;5039191;28;20124;-69
2023/01/12 04:01:30;;;;;;;5.88;2.33;;;3.20;99.90;;;;;;5038853;28;20379;-69
2023/01/12 04:03:56;;;;;;;5.75;2.20;;;3.20;99.90;;;;;;5030551;28;20033;-70
2023/01/12 04:06:22;;;;;;;6.75;1.77;;;3.00;99.90;;;;;;5033643;28;20029;-69
2023/01/12 04:08:47;;;;;;;4.82;1.70;;;3.00;99.90;;;;;;5033009;28;20460;-70
2023/01/12 04:13:57;;;;;;;4.78;1.90;;;3.10;99.90;;;;;;5034422;28;23393;-69
2023/01/12 04:16:23;;;;;;;5.38;2.15;;;3.20;99.90;;;;;;5030604;28;20037;-69
2023/01/12 04:18:49;;;;;;;5.05;2.00;;;3.30;99.90;;;;;;5034076;28;20450;-70
2023/01/12 04:23:59;;;;;;;4.33;2.03;;;3.40;99.80;;;;;;5036771;28;20125;-70
2023/01/12 04:26:25;;;;;;;4.43;1.70;;;3.50;99.70;;;;;;5030785;28;20283;-70
2023/01/12 04:28:50;;;;;;;3.55;1.40;;;3.50;99.60;;;;;;5036792;28;20271;-70
2023/01/12 04:31:16;;;;;;;4.90;1.88;;;3.40;99.90;;;;;;5029960;28;20029;-69
2023/01/12 04:33:42;;;;;;;3.78;2.10;;;3.30;99.90;;;;;;5027797;28;20029;-70
2023/01/12 04:36:10;;;;;;;5.72;2.55;;;3.20;99.90;;;;;;5034623;28;20024;-70
2023/01/12 04:38:37;;;;;;;4.43;2.03;;;3.40;99.70;;;;;;5031577;28;20053;-69
2023/01/12 04:41:03;;;;;;;7.13;2.15;;;3.80;98.70;;;;;;5025146;28;20033;-70
2023/01/12 04:43:29;;;;;;;4.45;2.10;;;3.80;98.80;;;;;;5035601;28;20128;-70
2023/01/12 04:45:55;;;;;;;4.60;1.92;;;3.50;99.50;;;;;;5025876;28;20120;-70
2023/01/12 04:48:20;;;;;;;5.18;2.22;;;3.20;99.90;;;;;;5031682;28;20029;-69
2023/01/12 04:50:48;;;;;;;7.78;1.92;;;3.20;99.90;;;;;;5032291;28;20091;-70
2023/01/12 04:53:14;;;;;;;7.22;2.17;;;2.90;99.90;;;;;;5025413;28;20060;-69
2023/01/12 04:55:42;;;;;;;3.40;1.45;;;2.90;99.90;;;;;;5030296;28;20056;-70
2023/01/12 04:58:08;;;;;;;4.70;2.15;;;2.90;99.90;;;;;;5026906;28;20072;-70
2023/01/12 05:00:34;;;;;;;5.32;1.60;;;2.80;99.90;;;;;;5037403;28;20434;-70
2023/01/12 05:03:01;;;;;;;3.50;1.77;;;2.90;99.90;;;;;;5031974;28;20068;-69
2023/01/12 05:05:31;;;;;;;4.90;2.28;;;2.70;99.90;;;;;;5024463;28;20025;-70
2023/01/12 05:10:51;;;;;;;5.28;2.17;;;2.80;99.90;;;;;;5028409;28;20087;-70
2023/01/12 05:13:17;;;;;;;5.65;2.33;;;3.00;99.90;;;;;;5029974;28;20033;-70
2023/01/12 05:15:43;;;;;;;5.32;2.50;;;3.10;99.90;;;;;;5033897;28;20367;-69
2023/01/12 05:18:09;;;;;;;7.00;2.75;;;3.10;99.90;;;;;;5025401;28;20069;-69
2023/01/12 05:20:34;;;;;;;7.75;3.63;;;3.00;99.90;;;;;;5029559;28;20029;-69
2023/01/12 05:23:00;;;;;;;7.00;3.47;;;2.90;99.90;;;;;;5027577;28;20053;-70
2023/01/12 05:25:27;;;;;;;7.88;3.70;;;2.80;99.90;;;;;;5026249;28;20033;-69
2023/01/12 05:27:58;;;;;;;6.43;2.90;;;2.70;99.90;;;;;;5025506;28;20132;-69
2023/01/12 05:30:25;;;;;;;5.28;2.53;;;2.40;99.90;;;;;;5030464;28;20047;-69
2023/01/12 05:32:51;;;;;;;5.00;2.40;;;2.30;99.90;;;;;;5029412;28;20072;-69
2023/01/12 05:35:17;;;;;;;5.00;2.35;;;2.40;99.90;;;;;;5031843;28;20069;-69
2023/01/12 05:37:43;;;;;;;13.10;2.25;;;2.40;99.90;;;;;;5027446;28;20037;-70
2023/01/12 05:40:09;;;;;;;4.90;2.42;;;2.40;99.90;;;;;;5028962;28;20036;-69
2023/01/12 05:45:19;;;;;;;6.38;2.63;;;2.70;99.90;;;;;;5031635;28;20051;-70
2023/01/12 05:47:45;;;;;;;5.30;2.80;;;3.00;99.90;;;;;;5035074;28;20833;-69
2023/01/12 05:50:11;;;;;;;6.90;2.90;;;3.00;99.90;;;;;;5032227;28;20116;-70
2023/01/12 05:52:37;;;;;;;6.03;3.05;;;2.90;99.90;;;;;;5028234;28;20033;-69
2023/01/12 05:55:03;;;;;;;5.03;2.40;;;2.70;99.90;;;;;;5023782;28;20103;-69
2023/01/12 05:57:30;;;;;;;8.50;2.70;;;2.60;99.90;;;;;;5031292;28;20357;-69
2023/01/12 05:59:55;;;;;;;7.00;3.10;;;2.50;99.90;;;;;;5029825;28;20474;-70
2023/01/12 06:02:21;;;;;;;6.88;2.40;;;2.40;99.90;;;;;;5033857;28;20052;-69
2023/01/12 06:04:47;;;;;;;4.80;2.42;;;2.40;99.90;;;;;;5030363;28;20038;-69
2023/01/12 06:07:14;;;;;;;6.22;2.45;;;2.50;99.90;;;;;;5027624;28;20038;-69
2023/01/12 06:09:40;;;;;;;4.65;2.20;;;2.40;99.90;;;;;;5021874;28;20037;-69
2023/01/12 06:14:52;;;;;;;7.28;2.72;;;2.40;99.90;;;;;;5028368;28;20047;-69
2023/01/12 06:17:17;;;;;;;5.65;2.85;;;2.60;99.90;;;;;;5034952;28;20025;-69
2023/01/12 06:19:43;;;;;;;8.00;4.05;;;2.80;99.90;;;;;;5022291;28;20448;-69
2023/01/12 06:22:09;;;;;;;5.95;3.00;;;2.80;99.90;;;;;;5035206;28;20056;-69
2023/01/12 06:24:35;;;;;;;9.82;3.90;;;2.70;99.90;;;;;;5024810;28;20928;-70
2023/01/12 06:27:00;;;;;;;8.18;3.67;;;2.70;99.90;;;;;;5028319;28;20110;-70
2023/01/12 06:29:26;;;;;;;7.70;3.00;;;2.60;99.90;;;;;;5031329;28;20025;-69
2023/01/12 06:31:52;;;;;;;6.78;3.00;;;2.30;99.90;;;;;;5033231;28;20033;-69
2023/01/12 06:34:17;;;;;;;4.75;2.40;;;2.60;99.90;;;;;;5037923;28;20031;-70
2023/01/12 06:36:43;;;;;;;5.65;3.20;;;2.60;99.90;;;;;;5020562;28;20053;-69
2023/01/12 06:39:11;;;;;;;4.05;2.20;;;2.50;99.90;;;;;;5020427;28;20057;-69
2023/01/12 06:44:21;;;;;;;6.20;3.33;;;2.50;99.90;;;;;;5024969;28;20177;-70
2023/01/12 06:46:47;;;;;;;7.43;3.47;;;2.40;99.90;;;;;;5039665;28;20124;-69
2023/01/12 06:49:15;;;;;;;7.20;3.40;;;2.60;99.90;;;;;;5037099;28;20037;-69
2023/01/12 06:51:41;;;;;;;5.75;2.90;;;2.80;99.90;;;;;;5031362;28;20074;-69
2023/01/12 06:54:07;;;;;;;6.97;2.92;;;2.80;99.90;;;;;;5032430;28;20025;-71
2023/01/12 06:56:33;;;;;;;6.38;2.80;;;2.80;99.90;;;;;;5030407;28;20033;-70
2023/01/12 06:58:59;;;;;;;10.93;8.05;;;2.90;99.90;;;;;;5026149;28;20037;-71
2023/01/12 07:01:26;;;;;;;12.45;8.15;;;2.70;99.90;;;;;;5036971;28;20033;-71
2023/01/12 07:03:52;;;;;;;9.32;7.28;;;2.60;99.90;;;;;;5032582;28;20056;-71
2023/01/12 07:06:18;;;;;;;7.20;4.65;;;2.60;99.90;;;;;;5034143;28;20106;-71
2023/01/12 07:08:44;;;;;;;8.02;3.50;;;2.50;99.90;;;;;;5032995;28;20028;-70
2023/01/12 07:11:13;;;;;;;4.63;2.65;;;2.50;99.90;;;;;;5033166;28;20090;-70
2023/01/12 07:13:39;;;;;;;6.30;2.65;;;2.60;99.90;;;;;;5034542;28;20029;-71
2023/01/12 07:16:06;;;;;;;5.80;2.83;;;2.60;99.90;;;;;;5029021;28;20025;-71
2023/01/12 07:18:32;;;;;;;6.53;3.20;;;2.70;99.90;;;;;;5025242;28;20029;-71
2023/01/12 07:20:58;;;;;;;5.93;2.90;;;2.80;99.90;;;;;;5030672;28;20033;-71
2023/01/12 07:23:23;;;;;;;6.07;3.65;;;2.90;99.90;;;;;;5031602;28;21001;-71
2023/01/12 07:25:49;;;;;;;8.48;3.13;;;2.90;99.90;;;;;;5028848;28;20462;-71
2023/01/12 07:28:15;;;;;;;8.32;3.97;;;2.90;99.90;;;;;;5036892;28;20040;-71
2023/01/12 07:30:41;;;;;;;8.32;3.83;;;2.90;99.90;;;;;;5031301;28;20407;-71
2023/01/12 07:33:12;;;;;;;8.98;4.22;;;2.80;99.90;;;;;;5037480;28;20062;-71
2023/01/12 07:35:39;;;;;;;6.47;3.20;;;2.70;99.90;;;;;;5029631;28;20032;-71
2023/01/12 07:38:05;;;;;;;8.50;2.92;;;2.70;99.90;;;;;;5026938;28;20038;-71
2023/01/12 07:40:31;;;;;;;7.90;2.88;;;2.90;99.90;;;;;;5032583;28;20029;-71
2023/01/12 07:43:01;;;;;;;6.35;3.42;;;2.90;99.90;;;;;;5027260;28;20375;-70
2023/01/12 07:45:28;;;;;;;8.73;3.70;;;2.90;99.90;;;;;;5040409;28;20126;-70
2023/01/12 07:47:54;;;;;;;10.52;2.92;;;2.90;99.90;;;;;;5035028;28;20418;-70
2023/01/12 07:50:21;;;;;;;8.30;3.25;;;2.90;99.90;;;;;;5040858;28;20032;-71
2023/01/12 07:52:47;;;;;;;7.78;3.80;;;3.10;99.90;;;;;;5027582;28;20029;-70
2023/01/12 07:55:15;;;;;;;7.20;3.33;;;2.90;99.90;;;;;;5033737;28;20572;-70
2023/01/12 07:57:42;;;;;;;8.32;4.03;;;2.90;99.90;;;;;;5034986;28;20859;-70
2023/01/12 08:00:08;;;;;;;10.88;4.10;;;3.00;99.90;;;;;;5034788;28;20053;-70
2023/01/12 08:02:34;;;;;;;6.90;3.80;;;3.00;99.90;;;;;;5022357;28;20026;-70
2023/01/12 08:04:59;;;;;;;9.77;3.60;;;3.00;99.90;;;;;;5026103;28;20029;-70
2023/01/12 08:07:25;;;;;;;8.90;3.40;;;3.10;99.90;;;;;;5024141;28;20113;-70
2023/01/12 08:09:51;;;;;;;11.88;4.00;;;3.30;99.90;;;;;;5025069;28;20056;-70
2023/01/12 08:12:17;;;;;;;7.88;3.92;;;3.40;99.90;;;;;;5038591;28;20086;-70
2023/01/12 08:14:42;;;;;;;6.72;3.45;;;3.50;99.90;;;;;;5034618;28;20029;-70
2023/01/12 08:17:21;;;;;;;6.78;3.33;;;3.50;99.90;;;;;;5024239;28;20732;-71
2023/01/12 08:20:00;;;;;;;7.18;3.83;;;3.60;99.90;;;;;;5032378;28;20065;-70
2023/01/12 08:22:38;;;;;;;6.82;3.42;;;3.70;99.90;;;;;;5033913;28;20055;-70
2023/01/12 08:25:09;;;;;;;9.35;4.15;;;3.40;99.90;;;;;;5030616;28;20416;-71
2023/01/12 08:27:38;;;;;;;9.88;5.25;;;3.30;99.90;;;;;;5029824;28;20379;-71
2023/01/12 08:30:07;;;;;;;9.00;4.68;;;3.30;99.90;;;;;;5034027;28;20025;-71
2023/01/12 08:32:34;;;;;;;7.80;3.90;;;3.20;99.90;;;;;;5029678;28;20032;-71
2023/01/12 08:35:03;;;;;;;8.68;4.35;;;3.30;99.90;;;;;;5026811;28;20035;-71
2023/01/12 08:37:30;;;;;;;9.63;4.47;;;3.40;99.90;;;;;;5026085;28;20041;-71
2023/01/12 08:39:56;;;;;;;8.88;4.38;;;3.70;99.90;;;;;;5030752;28;20058;-71
2023/01/12 08:42:26;;;;;;;9.63;4.88;;;3.90;99.90;;;;;;5031302;28;20036;-71
2023/01/12 08:44:53;;;;;;;15.02;7.18;;;3.60;99.90;;;;;;5033183;28;20025;-71
2023/01/12 08:47:21;;;;;;;15.35;8.38;;;3.40;99.90;;;;;;5036472;28;20043;-71
2023/01/12 08:49:47;;;;;;;16.63;8.75;;;3.40;99.90;;;;;;5031874;28;20021;-71
2023/01/12 08:52:14;;;;;;;17.17;8.68;;;3.40;99.90;;;;;;5029432;28;20041;-71
2023/01/12 08:54:40;;;;;;;12.45;7.03;;;3.20;99.90;;;;;;5034334;28;20043;-71
2023/01/12 08:57:06;;;;;;;16.05;7.65;;;3.30;99.90;;;;;;5033602;28;20503;-71
2023/01/12 08:59:31;;;;;;;10.20;4.45;;;3.50;99.90;;;;;;5036544;28;20067;-71
2023/01/12 09:01:57;;;;;;;11.60;5.47;;;3.60;99.90;;;;;;5035498;28;20051;-71
2023/01/12 09:04:23;;;;;;;12.45;7.03;;;3.80;99.90;;;;;;5030188;28;20033;-71
2023/01/12 09:06:48;;;;;;;13.35;6.22;;;3.80;99.90;;;;;;5033121;28;20567;-71
2023/01/12 09:09:17;;;;;;;16.83;7.05;;;3.70;99.90;;;;;;5035312;28;20029;-71
2023/01/12 09:11:43;;;;;;;11.07;6.20;;;3.70;99.90;;;;;;5035430;28;20720;-71
2023/01/12 09:14:10;;;;;;;12.05;5.10;;;3.80;99.90;;;;;;5035012;28;20032;-71
2023/01/12 09:16:36;;;;;;;13.30;5.85;;;4.00;99.90;;;;;;5034757;28;20033;-71
2023/01/12 09:19:01;;;;;;;13.60;6.45;;;4.10;99.90;;;;;;5036453;28;20384;-71
2023/01/12 09:21:28;;;;;;;9.25;5.07;;;4.10;99.90;;;;;;5035127;28;20025;-71
2023/01/12 09:23:54;;;;;;;10.23;5.15;;;4.20;99.90;;;;;;5031814;28;20033;-71
2023/01/12 09:26:27;;;;;;;11.10;6.13;;;4.30;99.90;;;;;;5034299;28;20115;-71
2023/01/12 09:28:52;;;;;;;10.88;5.03;;;4.20;99.90;;;;;;5037412;28;20542;-71
2023/01/12 09:31:21;;;;;;;12.02;5.38;;;4.20;99.90;;;;;;5036502;28;20104;-71
2023/01/12 09:33:47;;;;;;;7.70;4.53;;;4.20;99.90;;;;;;5038604;28;20051;-71
2023/01/12 09:36:15;;;;;;;8.00;4.28;;;4.40;99.90;;;;;;5037303;28;20028;-71
2023/01/12 09:38:43;;;;;;;9.05;4.72;;;4.50;99.90;;;;;;5039553;28;20055;-71
2023/01/12 09:46:57;;;;;;;8.68;4.78;;;4.60;99.90;;;;;;5035068;28;20040;-72
2023/01/12 09:46:59;;;;;;;14.77;8.65;;;4.40;99.90;;;;;;5046101;28;20079;-70
2023/01/12 09:49:38;;;;;;;14.30;6.72;;;4.10;99.90;;;;;;5038979;28;20056;-70
2023/01/12 09:52:21;;;;;;;16.05;7.82;;;4.00;99.90;;;;;;5043894;28;20037;-70
2023/01/12 09:54:49;;;;;;;16.58;8.70;;;4.10;99.90;;;;;;5046265;28;20060;-70
2023/01/12 09:57:53;;;;;;;18.10;9.15;;;4.20;99.90;;;;;;5046773;28;20056;-70
2023/01/12 10:00:20;;;;;;;20.42;9.30;;;4.10;99.90;;;;;;5034861;28;20053;-70
2023/01/12 10:02:50;;;;;;;25.33;13.88;;;4.20;99.90;;;;;;5046901;28;21379;-70
2023/01/12 10:05:52;;;;;;;15.40;8.75;;;4.30;99.90;;;;;;5045165;28;20048;-70
2023/01/12 10:08:22;;;;;;;19.73;8.55;;;4.20;99.90;;;;;;5047528;28;20025;-70
2023/01/12 10:11:04;;;;;;;14.25;8.38;;;4.20;99.90;;;;;;5046035;28;20028;-70
2023/01/12 10:14:09;;;;;;;14.48;8.90;;;4.30;99.90;;;;;;5047131;28;20384;-71
2023/01/12 10:16:56;;;;;;;15.13;7.65;;;4.40;99.90;;;;;;5046217;28;20029;-70
2023/01/12 10:19:34;;;;;;;14.30;7.35;;;4.30;99.90;;;;;;5049676;28;20037;-70
2023/01/12 10:22:09;;;;;;;13.63;6.10;;;4.30;99.90;;;;;;5049055;28;20041;-70
2023/01/12 10:24:39;;;;;;;13.75;7.90;;;4.40;99.90;;;;;;5051043;28;20051;-70
2023/01/12 10:27:12;;;;;;;14.85;7.28;;;4.50;99.90;;;;;;5049171;28;20083;-71
2023/01/12 10:29:38;;;;;;;13.35;7.63;;;4.70;99.90;;;;;;5049249;28;20546;-70
2023/01/12 10:32:04;;;;;;;14.65;7.30;;;4.80;99.90;;;;;;5046450;28;20033;-71
2023/01/12 10:34:51;;;;;;;15.32;7.68;;;4.90;99.90;;;;;;5048745;28;20552;-70
2023/01/12 10:37:16;;;;;;;16.45;8.77;;;4.70;99.90;;;;;;5049142;28;20040;-70
2023/01/12 10:39:43;;;;;;;16.35;8.68;;;4.80;99.90;;;;;;5050835;28;20033;-70
2023/01/12 10:45:10;;;;;;;12.00;6.15;;;5.00;99.90;;;;;;5034289;28;20040;-70
2023/01/12 10:47:36;;;;;;;13.57;7.38;;;5.00;99.90;;;;;;5033737;28;20502;-70
2023/01/12 10:50:22;;;;;;;18.33;7.60;;;4.90;99.90;;;;;;5043259;28;20033;-70
2023/01/12 10:52:52;;;;;;;15.35;8.10;;;4.90;99.90;;;;;;5031776;28;20037;-70
2023/01/12 10:55:23;;;;;;;12.40;7.78;;;4.80;99.90;;;;;;5034355;28;20091;-70
2023/01/12 10:57:50;;;;;;;14.88;8.25;;;4.80;99.90;;;;;;5027871;28;20025;-71
2023/01/12 11:00:22;;;;;;;15.60;8.23;;;4.90;99.90;;;;;;5040504;28;20136;-70
2023/01/12 11:02:48;;;;;;;13.60;7.45;;;5.00;99.90;;;;;;5030652;28;20029;-71
2023/01/12 11:05:25;;;;;;;17.08;7.70;;;5.00;99.90;;;;;;5034746;28;20068;-70
2023/01/12 11:07:51;;;;;;;14.90;7.57;;;5.20;99.90;;;;;;5037590;28;20411;-71
2023/01/12 11:10:25;;;;;;;14.43;6.53;;;5.30;99.90;;;;;;5030598;28;20038;-70
2023/01/12 11:13:03;;;;;;;14.43;7.47;;;5.20;99.90;;;;;;5023047;28;20021;-70
2023/01/12 11:15:32;;;;;;;13.77;7.00;;;5.30;99.90;;;;;;5035407;28;20107;-70
2023/01/12 11:18:04;;;;;;;15.32;6.93;;;5.30;99.90;;;;;;5034556;28;20497;-70
2023/01/12 11:20:39;;;;;;;13.23;7.15;;;5.20;99.90;;;;;;5036017;28;20040;-71
2023/01/12 11:23:13;;;;;;;15.63;8.25;;;5.10;99.90;;;;;;5028516;28;20045;-70
2023/01/12 11:25:44;;;;;;;13.77;7.60;;;5.00;99.90;;;;;;5026285;28;20025;-71
2023/01/12 11:28:19;;;;;;;15.93;7.38;;;5.10;99.90;;;;;;5028505;28;20036;-70
2023/01/12 11:31:11;;;;;;;12.70;7.57;;;5.20;99.90;;;;;;5031739;28;20032;-70
2023/01/12 11:33:44;;;;;;;15.50;7.97;;;5.20;99.90;;;;;;5033051;28;20021;-70
2023/01/12 11:36:16;;;;;;;30.13;12.53;;;5.10;99.90;;;;;;5026614;28;20551;-71
2023/01/12 11:38:49;;;;;;;23.33;11.32;;;5.10;99.90;;;;;;5030334;28;20292;-71
2023/01/12 11:41:36;;;;;;;18.95;10.07;;;5.10;99.90;;;;;;5039274;28;20025;-70
2023/01/12 11:44:18;;;;;;;20.27;9.25;;;5.30;99.90;;;;;;5025254;28;20099;-70
2023/01/12 11:46:48;;;;;;;11.95;6.53;;;5.40;99.90;;;;;;5036365;28;20084;-70
2023/01/12 11:49:38;;;;;;;15.02;7.72;;;5.40;99.90;;;;;;5033207;28;20037;-70
2023/01/12 11:52:06;;;;;;;11.98;6.32;;;5.30;99.90;;;;;;5030365;28;20029;-71
2023/01/12 11:54:32;;;;;;;11.73;6.95;;;5.20;99.90;;;;;;5031950;28;20172;-70
2023/01/12 11:57:07;;;;;;;17.27;7.47;;;5.00;99.90;;;;;;5033690;28;20112;-71
2023/01/12 11:59:51;;;;;;;19.05;7.22;;;5.10;99.90;;;;;;5029286;28;20037;-70
2023/01/12 12:02:37;;;;;;;13.30;7.40;;;5.10;99.90;;;;;;5031164;28;20034;-70
2023/01/12 12:05:40;;;;;;;12.45;7.65;;;5.10;99.90;;;;;;5042031;28;20029;-70
2023/01/12 12:08:08;;;;;;;14.02;7.95;;;5.60;99.90;;;;;;5039435;28;20029;-70
2023/01/12 12:10:33;;;;;;;13.65;7.50;;;5.40;99.90;;;;;;5037432;28;20036;-70
2023/01/12 12:13:18;;;;;;;13.27;7.93;;;5.30;99.90;;;;;;5037824;28;20116;-70
2023/01/12 12:16:08;;;;;;;17.23;7.55;;;5.20;99.90;;;;;;5035360;28;20024;-70
2023/01/12 12:18:56;;;;;;;12.30;6.95;;;5.30;99.90;;;;;;5033337;28;20040;-71
2023/01/12 12:21:45;;;;;;;14.85;7.85;;;5.30;99.90;;;;;;5037176;28;20108;-72
2023/01/12 12:24:13;;;;;;;14.10;7.65;;;5.40;99.90;;;;;;5037363;28;20044;-70
2023/01/12 12:27:11;;;;;;;19.40;7.82;;;5.40;99.90;;;;;;5029882;28;20032;-70
2023/01/12 12:30:09;;;;;;;12.43;7.72;;;5.40;99.90;;;;;;5038269;28;20090;-70
2023/01/12 12:32:54;;;;;;;18.08;7.35;;;5.50;99.90;;;;;;5033179;28;20036;-70
2023/01/12 12:35:24;;;;;;;12.43;7.15;;;5.50;99.90;;;;;;5036412;28;20046;-69
2023/01/12 12:37:55;;;;;;;14.00;6.88;;;5.50;99.90;;;;;;5030986;28;20029;-69
2023/01/12 12:46:17;;;;;;;12.60;6.22;;;5.50;99.90;;;;;;5031192;28;20094;-69
2023/01/12 12:48:54;;;;;;;18.65;6.93;;;5.60;99.90;;;;;;5031380;28;20029;-70
2023/01/12 12:51:21;;;;;;;16.38;8.23;;;5.50;99.90;;;;;;5031555;28;20079;-69
2023/01/12 12:53:53;;;;;;;11.85;6.88;;;5.70;99.90;;;;;;5034642;28;20115;-69
2023/01/12 12:56:22;;;;;;;12.60;7.32;;;5.70;99.90;;;;;;5033888;28;20037;-69
2023/01/12 12:58:53;;;;;;;13.27;6.47;;;5.80;99.90;;;;;;5026889;28;20052;-69
2023/01/12 13:01:18;;;;;;;13.85;8.38;;;5.70;99.90;;;;;;5026276;28;20052;-69
2023/01/12 13:03:55;;;;;;;15.77;7.70;;;5.70;99.90;;;;;;5036427;28;20060;-69
2023/01/12 13:06:45;;;;;;;14.43;6.90;;;5.80;99.90;;;;;;5030659;28;20514;-69
2023/01/12 13:09:11;;;;;;;28.55;11.73;;;5.90;99.90;;;;;;5031656;28;20051;-69
2023/01/12 13:11:58;;;;;;;22.52;9.15;;;5.90;99.90;;;;;;5024365;28;20033;-70
2023/01/12 13:14:26;;;;;;;13.43;7.20;;;6.10;99.90;;;;;;5033960;28;20549;-69
2023/01/12 13:16:59;;;;;;;18.10;8.48;;;6.00;99.90;;;;;;5030649;28;20509;-69
2023/01/12 13:19:38;;;;;;;18.67;8.50;;;6.00;99.90;;;;;;5028364;28;20052;-70
2023/01/12 13:22:47;;;;;;;11.55;6.38;;;6.00;99.90;;;;;;5032806;28;20052;-70
2023/01/12 13:25:18;;;;;;;12.23;7.07;;;6.00;99.90;;;;;;5016737;28;20048;-69
2023/01/12 13:27:53;;;;;;;12.45;6.18;;;6.10;99.90;;;;;;5028777;28;20037;-69
2023/01/12 13:30:27;;;;;;;11.10;6.05;;;6.20;99.90;;;;;;5037073;28;20032;-71
2023/01/12 13:33:12;;;;;;;14.10;6.22;;;6.30;99.90;;;;;;5036702;28;20029;-70
2023/01/12 13:35:39;;;;;;;12.70;6.45;;;6.30;99.90;;;;;;5033977;28;20720;-70
2023/01/12 13:38:43;;;;;;;13.07;5.55;;;6.30;99.90;;;;;;5033874;28;20715;-70
2023/01/12 13:44:36;;;;;;;10.95;5.03;;;6.30;99.90;;;;;;5026273;28;20039;-70
2023/01/12 13:47:14;;;;;;;14.23;5.15;;;6.20;99.90;;;;;;5034550;28;20029;-70
2023/01/12 13:49:55;;;;;;;10.63;5.28;;;6.20;99.90;;;;;;5037830;28;20071;-71
2023/01/12 13:52:33;;;;;;;7.13;4.57;;;6.20;99.90;;;;;;5032404;28;20056;-70
2023/01/12 13:54:59;;;;;;;8.63;5.10;;;6.10;99.90;;;;;;5027479;28;20111;-71
2023/01/12 13:57:27;;;;;;;9.15;4.93;;;6.20;99.90;;;;;;5027485;28;20026;-70
2023/01/12 14:00:14;;;;;;;13.95;6.18;;;6.20;99.90;;;;;;5040343;28;20037;-70